createdAt,value
2023-04-07T00:47:39.812Z,101745.16
2023-04-07T00:50:08.612Z,101739.56
2023-04-07T00:52:36.611Z,101739.56
2023-04-07T00:55:04.772Z,101735.97
2023-04-07T00:57:32.767Z,101732.34
2023-04-07T01:00:00.855Z,101735.97
2023-04-07T01:46:51.252Z,101710.63
2023-04-07T01:49:20.876Z,101712.25
2023-04-07T01:51:50.434Z,101703.88
2023-04-07T01:54:18.632Z,101709.00
2023-04-07T01:56:46.595Z,101706.19
2023-04-07T01:59:14.596Z,101709.00
2023-04-07T04:47:49.880Z,101667.41
2023-04-07T04:50:20.277Z,101673.00
2023-04-07T04:52:48.406Z,101668.22
2023-04-07T04:55:23.071Z,101672.16
2023-04-07T04:57:52.846Z,101672.16
2023-04-07T05:00:28.469Z,101672.16
2023-04-07T05:03:03.414Z,101666.56
2023-04-07T05:05:37.160Z,101677.75
2023-04-07T05:08:05.363Z,101673.00
2023-04-07T05:10:39.418Z,101677.75
2023-04-07T05:13:09.860Z,101671.00
2023-04-07T05:15:38.388Z,101677.41
2023-04-07T05:18:12.325Z,101679.41
2023-04-07T05:20:43.562Z,101679.41
2023-04-07T05:23:12.416Z,101683.00
2023-04-07T05:25:41.739Z,101693.84
2023-04-07T05:28:10.383Z,101688.25
2023-04-07T05:30:39.680Z,101683.47
2023-04-07T05:33:08.298Z,101686.28
2023-04-07T05:35:54.371Z,101688.25
2023-04-07T05:38:22.634Z,101685.13
2023-04-07T05:40:52.235Z,101689.06
2023-04-07T05:43:31.274Z,101685.13
2023-04-07T05:45:59.464Z,101685.94
2023-04-07T05:48:36.857Z,101687.59
2023-04-07T05:51:06.921Z,101687.59
2023-04-07T05:53:40.546Z,101682.00
2023-04-07T05:56:08.792Z,101684.81
2023-04-07T05:58:46.638Z,101683.63
2023-04-07T06:01:19.216Z,101683.63
2023-04-07T06:03:50.089Z,101686.09
2023-04-07T06:06:26.409Z,101685.28
2023-04-07T06:08:54.494Z,101683.28
2023-04-07T06:11:24.501Z,101688.53
2023-04-07T06:13:52.596Z,101686.91
2023-04-07T06:16:20.675Z,101685.75
2023-04-07T06:18:48.992Z,101695.78
2023-04-07T06:21:17.062Z,101683.75
2023-04-07T06:23:46.716Z,101687.41
2023-04-07T06:26:14.989Z,101690.19
2023-04-07T06:28:59.735Z,101690.19
2023-04-07T06:31:28.226Z,101698.25
2023-04-07T06:33:56.202Z,101697.44
2023-04-07T06:36:24.808Z,101691.47
2023-04-07T06:38:59.977Z,101687.88
2023-04-07T06:41:39.656Z,101689.50
2023-04-07T06:44:11.164Z,101683.91
2023-04-07T06:46:42.150Z,101695.09
2023-04-07T06:49:10.688Z,101689.50
2023-04-07T06:51:38.698Z,101695.09
2023-04-07T06:54:13.031Z,101695.09
2023-04-07T06:56:43.618Z,101688.69
2023-04-07T06:59:15.898Z,101690.31
2023-04-07T07:02:01.225Z,101693.94
2023-04-07T07:04:29.503Z,101692.75
2023-04-07T07:06:59.257Z,101693.25
2023-04-07T07:09:28.852Z,101695.25
2023-04-07T07:11:57.972Z,101691.63
2023-04-07T07:14:28.604Z,101692.44
2023-04-07T07:16:56.924Z,101696.06
2023-04-07T07:19:25.244Z,101692.09
2023-04-07T07:21:53.523Z,101703.28
2023-04-07T07:24:21.746Z,101688.13
2023-04-07T07:26:52.332Z,101695.38
2023-04-07T07:29:20.807Z,101693.72
2023-04-07T07:31:49.128Z,101694.56
2023-04-07T07:34:19.379Z,101693.72
2023-04-07T07:36:47.500Z,101704.56
2023-04-07T07:39:20.540Z,101707.38
2023-04-07T07:41:53.257Z,101703.75
2023-04-07T07:44:24.790Z,101704.94
2023-04-07T07:46:53.532Z,101708.22
2023-04-07T07:49:22.149Z,101707.06
2023-04-07T07:52:10.389Z,101717.09
2023-04-07T07:54:41.838Z,101714.75
2023-04-07T07:57:15.392Z,101723.66
2023-04-07T07:59:45.209Z,101729.25
2023-04-07T08:02:13.943Z,101717.25
2023-04-07T08:04:42.706Z,101718.06
2023-04-07T08:07:11.702Z,101716.53
2023-04-07T08:10:14.528Z,101715.72
2023-04-07T08:12:47.712Z,101715.72
2023-04-07T08:15:21.045Z,101716.88
2023-04-07T08:17:49.342Z,101713.28
2023-04-07T08:20:17.694Z,101717.34
2023-04-07T08:22:49.262Z,101712.94
2023-04-07T08:25:17.641Z,101715.38
2023-04-07T08:27:46.339Z,101708.97
2023-04-07T08:30:23.001Z,101715.72
2023-04-07T08:32:54.312Z,101722.13
2023-04-07T09:26:04.832Z,101738.91
2023-04-07T09:28:46.762Z,101729.38
2023-04-07T09:31:14.963Z,101739.75
2023-04-07T09:33:43.271Z,101734.16
2023-04-07T09:36:12.557Z,101744.16
2023-04-07T09:38:41.439Z,101746.97
2023-04-07T09:41:13.127Z,101743.03
2023-04-07T09:43:47.929Z,101740.72
2023-04-07T09:46:27.365Z,101740.72
2023-04-07T09:49:04.840Z,101735.94
2023-04-07T09:51:36.063Z,101739.53
2023-04-07T09:54:07.282Z,101742.69
2023-04-07T09:56:41.460Z,101737.91
2023-04-07T09:59:17.101Z,101742.34
2023-04-07T10:01:56.716Z,101736.75
2023-04-07T10:04:37.593Z,101743.50
2023-04-07T10:07:09.232Z,101746.31
2023-04-07T10:09:41.225Z,101740.72
2023-04-07T10:12:09.599Z,101744.66
2023-04-07T10:14:40.155Z,101746.31
2023-04-07T10:17:10.252Z,101739.06
2023-04-07T10:19:42.141Z,101740.72
2023-04-07T10:22:13.507Z,101747.47
2023-04-07T10:24:47.194Z,101746.31
2023-04-07T10:27:16.104Z,101746.31
2023-04-07T10:29:44.360Z,101751.09
2023-04-07T10:32:13.861Z,101746.66
2023-04-07T10:35:01.183Z,101746.31
2023-04-07T10:37:29.537Z,101739.06
2023-04-07T10:40:19.364Z,101746.31
2023-04-07T10:42:48.547Z,101737.91
2023-04-07T10:45:21.487Z,101737.09
2023-04-07T10:48:15.859Z,101740.72
2023-04-07T10:50:49.100Z,101745.13
2023-04-07T10:53:21.545Z,101747.13
2023-04-07T11:00:12.517Z,101747.94
2023-04-07T11:02:49.041Z,101747.94
2023-04-07T11:05:28.284Z,101746.31
2023-04-07T11:08:01.671Z,101739.06
2023-04-07T11:10:30.344Z,101737.44
2023-04-07T11:13:06.400Z,101732.66
2023-04-07T11:15:35.514Z,101729.03
2023-04-07T11:18:08.214Z,101736.63
2023-04-07T11:20:49.100Z,101738.25
2023-04-07T11:23:19.499Z,101739.06
2023-04-07T11:25:49.275Z,101730.34
2023-04-07T11:28:21.009Z,101735.13
2023-04-07T11:30:51.880Z,101735.13
2023-04-07T11:33:23.460Z,101735.94
2023-04-07T11:35:52.407Z,101729.50
2023-04-07T11:38:22.369Z,101735.13
2023-04-07T11:40:50.770Z,101735.13
2023-04-07T11:43:20.252Z,101735.13
2023-04-07T11:45:57.261Z,101729.50
2023-04-07T11:48:28.933Z,101733.47
2023-04-07T11:50:57.384Z,101726.72
2023-04-07T11:53:30.979Z,101733.81
2023-04-07T11:56:06.142Z,101733.47
2023-04-07T11:58:35.008Z,101739.06
2023-04-07T12:01:07.387Z,101737.91
2023-04-07T12:03:38.334Z,101736.75
2023-04-07T12:06:07.537Z,101739.88
2023-04-07T12:08:43.582Z,101743.50
2023-04-07T12:11:12.504Z,101735.13
2023-04-07T12:13:41.797Z,101739.06
2023-04-07T12:16:11.000Z,101747.94
2023-04-07T12:18:39.656Z,101747.94
2023-04-07T12:21:08.233Z,101743.16
2023-04-07T12:23:41.213Z,101746.78
2023-04-07T12:26:12.303Z,101745.97
2023-04-07T12:28:44.437Z,101738.38
2023-04-07T12:31:12.480Z,101743.16
2023-04-07T12:33:40.593Z,101746.78
2023-04-07T12:36:09.008Z,101752.38
2023-04-07T12:38:37.959Z,101751.22
2023-04-07T12:41:06.454Z,101751.22
2023-04-07T12:43:39.285Z,101752.06
2023-04-07T12:46:07.514Z,101756.84
2023-04-07T12:48:35.955Z,101749.56
2023-04-07T12:51:04.329Z,101751.22
2023-04-07T12:53:35.510Z,101754.03
2023-04-07T12:56:18.987Z,101753.69
2023-04-07T12:58:48.602Z,101752.06
2023-04-07T13:01:17.098Z,101751.22
2023-04-07T13:03:45.966Z,101746.47
2023-04-07T13:06:30.121Z,101754.50
2023-04-07T13:08:59.352Z,101748.91
2023-04-07T13:11:28.449Z,101744.13
2023-04-07T13:14:01.394Z,101743.31
2023-04-07T13:16:30.406Z,101748.09
2023-04-07T13:19:05.719Z,101743.31
2023-04-07T13:21:46.330Z,101746.09
2023-04-07T13:24:19.585Z,101747.28
2023-04-07T13:26:48.994Z,101754.50
2023-04-07T13:29:20.063Z,101746.09
2023-04-07T13:31:48.549Z,101744.94
2023-04-07T13:34:19.286Z,101740.97
2023-04-07T13:36:47.655Z,101744.94
2023-04-07T13:39:16.039Z,101740.97
2023-04-07T13:41:44.170Z,101746.94
2023-04-07T13:44:12.615Z,101747.75
2023-04-07T13:46:44.955Z,101749.72
2023-04-07T13:49:15.131Z,101740.16
2023-04-07T13:51:46.474Z,101733.75
2023-04-07T13:54:26.312Z,101743.78
2023-04-07T13:56:57.313Z,101740.16
2023-04-07T13:59:26.073Z,101733.75
2023-04-07T14:01:56.064Z,101733.75
2023-04-07T14:04:24.654Z,101735.72
2023-04-07T14:06:53.224Z,101743.31
2023-04-07T14:09:21.716Z,101733.75
2023-04-07T14:11:50.282Z,101743.78
2023-04-07T14:14:19.797Z,101735.38
2023-04-07T14:16:53.167Z,101739.34
2023-04-07T14:19:24.185Z,101735.38
2023-04-07T14:21:52.414Z,101724.19
2023-04-07T14:24:21.094Z,101730.94
2023-04-07T14:26:51.257Z,101728.16
2023-04-07T14:29:19.433Z,101728.97
2023-04-07T14:31:51.939Z,101725.00
2023-04-07T14:34:20.233Z,101721.38
2023-04-07T14:36:57.449Z,101728.97
2023-04-07T14:39:25.941Z,101724.19
2023-04-07T14:41:56.768Z,101723.03
2023-04-07T14:44:25.050Z,101718.59
2023-04-07T14:46:53.565Z,101724.19
2023-04-07T14:49:22.781Z,101730.59
2023-04-07T14:51:51.037Z,101733.41
2023-04-07T14:54:21.758Z,101728.97
2023-04-07T14:56:51.455Z,101730.94
2023-04-07T14:59:20.080Z,101731.75
2023-04-07T15:01:48.326Z,101725.81
2023-04-07T15:04:16.505Z,101736.19
2023-04-07T15:06:46.882Z,101729.78
2023-04-07T15:09:15.616Z,101730.28
2023-04-07T15:11:46.231Z,101728.31
2023-04-07T15:14:15.609Z,101727.47
2023-04-07T15:16:44.206Z,101729.94
2023-04-07T15:19:12.307Z,101724.69
2023-04-07T15:21:40.470Z,101731.41
2023-04-07T15:24:08.480Z,101729.47
2023-04-07T15:26:36.507Z,101729.13
2023-04-07T15:29:06.009Z,101734.72
2023-04-07T15:31:34.165Z,101727.47
2023-04-07T15:34:02.391Z,101728.31
2023-04-07T15:36:31.922Z,101736.34
2023-04-07T15:39:00.737Z,101731.91
2023-04-07T15:41:28.842Z,101727.13
2023-04-07T15:43:57.048Z,101729.94
2023-04-07T15:46:27.140Z,101731.56
2023-04-07T15:48:55.339Z,101729.13
2023-04-07T15:51:23.449Z,101725.16
2023-04-07T15:53:51.622Z,101736.34
2023-04-07T15:56:19.624Z,101729.13
2023-04-07T15:58:47.835Z,101729.13
2023-04-07T16:01:15.915Z,101727.94
2023-04-07T16:03:48.742Z,101730.75
2023-04-07T16:06:26.934Z,101729.94
2023-04-07T16:09:11.839Z,101730.75
2023-04-07T16:11:52.163Z,101741.94
2023-04-07T16:14:29.526Z,101734.72
2023-04-07T16:16:59.487Z,101741.94
2023-04-07T16:19:29.256Z,101742.75
2023-04-07T16:21:57.305Z,101743.56
2023-04-07T16:24:25.604Z,101734.72
2023-04-07T16:26:55.910Z,101745.91
2023-04-07T16:29:24.056Z,101740.31
2023-04-07T16:31:52.389Z,101747.53
2023-04-07T16:34:21.046Z,101744.75
2023-04-07T16:36:51.231Z,101746.72
2023-04-07T16:39:19.875Z,101749.19
2023-04-07T16:41:50.268Z,101755.94
2023-04-07T16:44:23.078Z,101751.50
2023-04-07T16:46:53.059Z,101749.19
2023-04-07T16:49:23.024Z,101753.13
2023-04-07T16:51:52.738Z,101757.09
2023-04-07T16:54:21.345Z,101750.69
2023-04-07T16:56:50.462Z,101761.06
2023-04-07T16:59:18.571Z,101757.09
2023-04-07T17:01:56.457Z,101750.69
2023-04-07T17:04:26.615Z,101754.66
2023-04-07T17:06:58.165Z,101762.69
2023-04-07T17:09:26.626Z,101761.06
2023-04-07T17:11:57.236Z,101766.66
2023-04-07T17:14:27.400Z,101770.28
2023-04-07T17:16:58.231Z,101766.66
2023-04-07T17:19:26.508Z,101780.66
2023-04-07T17:21:56.588Z,101772.25
2023-04-07T17:24:24.696Z,101775.06
2023-04-07T17:26:56.249Z,101770.59
2023-04-07T17:29:33.227Z,101770.59
2023-04-07T17:32:02.865Z,101780.16
2023-04-07T17:34:31.900Z,101777.38
2023-04-07T17:37:08.779Z,101780.16
2023-04-07T17:39:42.010Z,101777.03
2023-04-07T17:45:32.709Z,101782.63
2023-04-07T17:48:06.020Z,101787.38
2023-04-07T17:50:50.465Z,101791.84
2023-04-07T17:53:44.652Z,101789.06
2023-04-07T18:00:56.833Z,101796.28
2023-04-07T18:04:22.309Z,101793.50
2023-04-07T18:06:31.496Z,101801.06
2023-04-07T18:09:22.264Z,101801.06
2023-04-07T18:11:55.555Z,101808.66
2023-04-07T18:14:30.717Z,101799.44
2023-04-07T18:17:16.602Z,101803.50
2023-04-07T18:19:51.878Z,101801.88
2023-04-07T18:22:26.117Z,101809.13
2023-04-07T18:25:20.311Z,101807.47
2023-04-07T18:28:13.709Z,101806.66
2023-04-07T18:35:41.347Z,101808.66
2023-04-07T18:39:05.957Z,101811.44
2023-04-07T18:42:02.092Z,101809.13
2023-04-07T18:44:35.731Z,101815.53
2023-04-07T18:47:29.847Z,101818.69
2023-04-07T18:50:21.920Z,101821.47
2023-04-07T18:53:07.567Z,101816.69
2023-04-07T18:59:14.235Z,101827.53
2023-04-07T19:01:58.678Z,101821.94
2023-04-07T19:04:58.184Z,101823.94
2023-04-07T19:11:13.404Z,101825.91
2023-04-07T19:14:43.551Z,101835.47
2023-04-07T19:20:52.025Z,101841.88
2023-04-07T19:27:40.846Z,101855.53
2023-04-07T19:35:23.142Z,101857.16
2023-04-07T19:38:12.778Z,101853.25
2023-04-07T19:41:02.058Z,101854.88
2023-04-07T19:43:59.272Z,101859.66
2023-04-07T19:47:00.771Z,101854.88
2023-04-07T19:49:57.304Z,101860.47
2023-04-07T19:52:56.983Z,101852.38
2023-04-07T19:56:16.462Z,101859.16
2023-04-07T19:59:19.569Z,101854.38
2023-04-07T20:01:50.298Z,101862.75
2023-04-07T20:04:47.678Z,101865.56
2023-04-07T20:07:20.533Z,101866.06
2023-04-07T20:10:01.699Z,101862.75
2023-04-07T20:12:46.992Z,101861.13
2023-04-07T20:19:03.213Z,101860.78
2023-04-07T20:22:03.765Z,101862.75
2023-04-07T20:24:57.605Z,101859.50
2023-04-07T20:28:03.833Z,101859.50
2023-04-07T20:31:44.184Z,101855.53
2023-04-07T20:34:23.611Z,101853.56
2023-04-07T20:37:33.241Z,101853.91
2023-04-07T20:40:13.785Z,101843.53
2023-04-07T20:42:56.924Z,101846.31
2023-04-07T20:45:25.774Z,101847.47
2023-04-07T20:47:56.358Z,101839.44
2023-04-07T20:50:40.196Z,101844.22
2023-04-07T20:56:37.787Z,101843.38
2023-04-07T20:59:29.743Z,101845.84
2023-04-07T21:02:06.353Z,101850.63
2023-04-07T21:04:37.995Z,101852.59
2023-04-07T21:07:13.746Z,101857.03
2023-04-07T21:09:51.062Z,101857.84
2023-04-07T21:12:19.462Z,101862.63
2023-04-07T21:14:47.580Z,101857.84
2023-04-07T21:17:16.140Z,101860.66
2023-04-07T21:19:49.398Z,101855.06
2023-04-07T21:22:18.612Z,101853.06
2023-04-07T21:24:48.839Z,101855.06
2023-04-07T21:27:17.905Z,101863.47
2023-04-07T21:29:46.427Z,101860.66
2023-04-07T21:32:15.628Z,101855.06
2023-04-07T21:34:51.021Z,101847.47
2023-04-07T21:37:19.688Z,101846.66
2023-04-07T21:39:53.779Z,101849.47
2023-04-07T21:42:29.740Z,101853.91
2023-04-07T21:44:58.665Z,101849.47
2023-04-07T21:47:50.780Z,101852.25
2023-04-07T21:50:20.850Z,101849.94
2023-04-07T21:53:04.403Z,101853.06
2023-04-07T21:55:41.890Z,101851.09
2023-04-07T21:58:20.560Z,101850.28
2023-04-07T22:00:51.167Z,101857.84
2023-04-07T22:06:36.810Z,101860.66
2023-04-07T22:09:05.579Z,101857.84
2023-04-07T22:11:33.908Z,101865.75
2023-04-07T22:14:34.134Z,101859.34
2023-04-07T22:17:02.635Z,101856.22
2023-04-07T22:19:32.299Z,101861.81
2023-04-07T22:22:02.632Z,101857.84
2023-04-07T22:24:37.099Z,101850.63
2023-04-07T22:27:05.669Z,101859.03
2023-04-07T22:29:34.090Z,101841.41
2023-04-07T22:32:06.121Z,101837.75
2023-04-07T22:34:37.010Z,101840.56
2023-04-07T22:37:10.731Z,101850.94
2023-04-07T22:39:39.106Z,101848.97
2023-04-07T22:42:09.222Z,101848.16
2023-04-07T22:44:38.060Z,101848.97
2023-04-07T22:47:12.603Z,101852.91
2023-04-07T22:49:46.506Z,101852.09
2023-04-07T22:52:20.370Z,101858.53
2023-04-07T22:54:48.760Z,101863.31
2023-04-07T22:57:17.236Z,101850.47
2023-04-07T22:59:48.860Z,101851.28
2023-04-07T23:02:17.676Z,101868.06
2023-04-07T23:04:46.709Z,101868.06
2023-04-07T23:07:17.724Z,101859.69
2023-04-07T23:09:46.689Z,101860.84
2023-04-07T23:12:15.911Z,101863.66
2023-04-07T23:14:47.571Z,101860.84
2023-04-07T23:17:16.374Z,101862.47
2023-04-07T23:19:44.954Z,101866.44
2023-04-07T23:22:17.358Z,101868.06
2023-04-07T23:24:47.425Z,101859.69
2023-04-07T23:27:15.956Z,101856.06
2023-04-07T23:29:44.943Z,101860.84
